EFA1450 YSCB-YSSY
Flight info
| Callsign | EFA1450 |
|---|---|
| Flight time | 0h 30m |
| Altitude | 17000 |
| Route | CULIN Y59 RIVET |
| Aircraft | B738/M-SDE2E3FGHIRWXY/LB1 |
Departure
| Time | 2026-05-06 09:32 |
|---|---|
| Airport | Canberra Airport (YSCB) |
Arrival
| Time | 2026-05-06 10:02 |
|---|---|
| Airport | Sydney Kingsford Smith International Airport (YSSY) |
| Time | Latitude | Longitude | Altitude | Speed | Heading |
|---|---|---|---|---|---|
| 2026-05-06 08:56 | -35.30796 | 149.19148 | 1872 ft | 0 kts | 270° |
| 2026-05-06 09:14 | -35.30796 | 149.19150 | 1872 ft | 1 kts | 269° |
| 2026-05-06 09:14 | -35.30800 | 149.19166 | 1873 ft | 2 kts | 284° |
| 2026-05-06 09:15 | -35.30802 | 149.19185 | 1873 ft | 2 kts | 276° |
| 2026-05-06 09:15 | -35.30805 | 149.19204 | 1874 ft | 2 kts | 279° |
| 2026-05-06 09:15 | -35.30807 | 149.19222 | 1874 ft | 0 kts | 278° |
| 2026-05-06 09:15 | -35.30806 | 149.19233 | 1874 ft | 1 kts | 227° |
| 2026-05-06 09:16 | -35.30798 | 149.19238 | 1874 ft | 0 kts | 178° |
| 2026-05-06 09:16 | -35.30792 | 149.19238 | 1874 ft | 0 kts | 179° |
| 2026-05-06 09:24 | -35.30796 | 149.19238 | 1874 ft | 2 kts | 178° |
| 2026-05-06 09:24 | -35.30849 | 149.19239 | 1874 ft | 12 kts | 179° |
| 2026-05-06 09:25 | -35.30979 | 149.19239 | 1874 ft | 21 kts | 180° |
| 2026-05-06 09:25 | -35.31164 | 149.19237 | 1874 ft | 28 kts | 178° |
| 2026-05-06 09:25 | -35.31373 | 149.19237 | 1873 ft | 24 kts | 181° |
| 2026-05-06 09:25 | -35.31532 | 149.19239 | 1871 ft | 19 kts | 180° |
| 2026-05-06 09:26 | -35.31652 | 149.19238 | 1871 ft | 14 kts | 180° |
| 2026-05-06 09:26 | -35.31751 | 149.19237 | 1871 ft | 12 kts | 179° |
| 2026-05-06 09:26 | -35.31838 | 149.19239 | 1871 ft | 10 kts | 179° |
| 2026-05-06 09:26 | -35.31909 | 149.19241 | 1871 ft | 8 kts | 172° |
| 2026-05-06 09:27 | -35.31959 | 149.19261 | 1871 ft | 5 kts | 148° |
| 2026-05-06 09:27 | -35.31981 | 149.19281 | 1872 ft | 0 kts | 137° |
| 2026-05-06 09:27 | -35.31991 | 149.19298 | 1872 ft | 0 kts | 125° |
| 2026-05-06 09:31 | -35.32004 | 149.19330 | 1873 ft | 10 kts | 114° |
| 2026-05-06 09:31 | -35.31969 | 149.19434 | 1875 ft | 19 kts | 17° |
| 2026-05-06 09:31 | -35.31535 | 149.19443 | 1877 ft | 104 kts | 0° |
| 2026-05-06 09:31 | -35.30580 | 149.19451 | 1986 ft | 159 kts | 359° |
| 2026-05-06 09:32 | -35.29451 | 149.19485 | 2690 ft | 167 kts | 0° |
| 2026-05-06 09:32 | -35.28277 | 149.19635 | 3354 ft | 183 kts | 1° |
| 2026-05-06 09:32 | -35.26964 | 149.19729 | 3979 ft | 196 kts | 1° |
| 2026-05-06 09:32 | -35.25515 | 149.19869 | 4432 ft | 222 kts | 2° |
| 2026-05-06 09:33 | -35.23942 | 149.20049 | 5161 ft | 234 kts | 2° |
| 2026-05-06 09:33 | -35.22235 | 149.20251 | 5719 ft | 256 kts | 2° |
| 2026-05-06 09:33 | -35.20417 | 149.20467 | 6488 ft | 267 kts | 2° |
| 2026-05-06 09:33 | -35.18550 | 149.20690 | 7350 ft | 274 kts | 2° |
| 2026-05-06 09:34 | -35.16871 | 149.20890 | 8116 ft | 279 kts | 2° |
| 2026-05-06 09:34 | -35.15105 | 149.21099 | 8896 ft | 284 kts | 2° |
| 2026-05-06 09:34 | -35.13055 | 149.21341 | 9748 ft | 291 kts | 2° |
| 2026-05-06 09:34 | -35.11022 | 149.21770 | 10194 ft | 298 kts | 14° |
| 2026-05-06 09:35 | -35.09054 | 149.22625 | 10780 ft | 309 kts | 18° |
| 2026-05-06 09:35 | -35.07275 | 149.23467 | 10955 ft | 332 kts | 19° |
| 2026-05-06 09:35 | -35.04992 | 149.24546 | 11202 ft | 357 kts | 19° |
| 2026-05-06 09:35 | -35.02913 | 149.25526 | 11803 ft | 364 kts | 19° |
| 2026-05-06 09:36 | -35.00430 | 149.26692 | 12544 ft | 371 kts | 19° |
| 2026-05-06 09:36 | -34.98013 | 149.27829 | 13306 ft | 376 kts | 19° |
| 2026-05-06 09:36 | -34.95563 | 149.28978 | 14042 ft | 381 kts | 18° |
| 2026-05-06 09:36 | -34.93082 | 149.30137 | 14758 ft | 386 kts | 18° |
| 2026-05-06 09:37 | -34.90570 | 149.31309 | 15469 ft | 390 kts | 18° |
| 2026-05-06 09:37 | -34.88060 | 149.32478 | 16144 ft | 395 kts | 18° |
| 2026-05-06 09:37 | -34.85487 | 149.33676 | 16819 ft | 399 kts | 17° |
| 2026-05-06 09:37 | -34.82853 | 149.34898 | 17096 ft | 406 kts | 17° |
| 2026-05-06 09:38 | -34.80237 | 149.36111 | 17099 ft | 402 kts | 17° |
| 2026-05-06 09:38 | -34.77610 | 149.37370 | 17107 ft | 409 kts | 21° |
| 2026-05-06 09:38 | -34.75286 | 149.38987 | 17105 ft | 425 kts | 33° |
| 2026-05-06 09:38 | -34.73099 | 149.41525 | 17098 ft | 436 kts | 52° |
| 2026-05-06 09:39 | -34.71619 | 149.44406 | 17109 ft | 438 kts | 60° |
| 2026-05-06 09:39 | -34.70159 | 149.47732 | 17098 ft | 438 kts | 62° |
| 2026-05-06 09:39 | -34.68685 | 149.51139 | 17097 ft | 437 kts | 62° |
| 2026-05-06 09:39 | -34.67209 | 149.54542 | 17101 ft | 437 kts | 62° |
| 2026-05-06 09:40 | -34.65806 | 149.57767 | 17101 ft | 437 kts | 62° |
| 2026-05-06 09:40 | -34.64453 | 149.60867 | 17100 ft | 437 kts | 62° |
| 2026-05-06 09:40 | -34.61590 | 149.67417 | 17101 ft | 437 kts | 61° |
| 2026-05-06 09:41 | -34.60107 | 149.70805 | 17101 ft | 437 kts | 61° |
| 2026-05-06 09:41 | -34.58672 | 149.74077 | 17101 ft | 437 kts | 61° |
| 2026-05-06 09:41 | -34.57245 | 149.77326 | 17101 ft | 437 kts | 61° |
| 2026-05-06 09:41 | -34.55926 | 149.80327 | 17100 ft | 437 kts | 61° |
| 2026-05-06 09:42 | -34.54485 | 149.83602 | 17105 ft | 442 kts | 61° |
| 2026-05-06 09:42 | -34.53028 | 149.86908 | 17099 ft | 445 kts | 61° |
| 2026-05-06 09:42 | -34.51573 | 149.90207 | 17097 ft | 444 kts | 61° |
| 2026-05-06 09:42 | -34.50121 | 149.93495 | 17094 ft | 444 kts | 61° |
| 2026-05-06 09:43 | -34.48759 | 149.96577 | 17092 ft | 444 kts | 61° |
| 2026-05-06 09:43 | -34.47304 | 149.99866 | 17087 ft | 444 kts | 61° |
| 2026-05-06 09:43 | -34.45810 | 150.03239 | 17084 ft | 444 kts | 61° |
| 2026-05-06 09:43 | -34.44349 | 150.06534 | 17081 ft | 444 kts | 61° |
| 2026-05-06 09:44 | -34.42893 | 150.09815 | 17077 ft | 443 kts | 61° |
| 2026-05-06 09:44 | -34.41435 | 150.13096 | 17076 ft | 443 kts | 61° |
| 2026-05-06 09:44 | -34.39962 | 150.16410 | 17057 ft | 428 kts | 61° |
| 2026-05-06 09:44 | -34.38596 | 150.19485 | 17072 ft | 392 kts | 61° |
| 2026-05-06 09:45 | -34.37427 | 150.22112 | 17087 ft | 378 kts | 61° |
| 2026-05-06 09:45 | -34.36168 | 150.24932 | 17074 ft | 374 kts | 61° |
| 2026-05-06 09:45 | -34.34907 | 150.27758 | 17074 ft | 372 kts | 61° |
| 2026-05-06 09:45 | -34.33675 | 150.30515 | 17075 ft | 373 kts | 61° |
| 2026-05-06 09:46 | -34.32547 | 150.33038 | 17074 ft | 374 kts | 61° |
| 2026-05-06 09:46 | -34.31295 | 150.35838 | 17074 ft | 374 kts | 61° |
| 2026-05-06 09:46 | -34.30056 | 150.38606 | 17074 ft | 374 kts | 61° |
| 2026-05-06 09:46 | -34.28819 | 150.41368 | 17023 ft | 372 kts | 61° |
| 2026-05-06 09:47 | -34.27685 | 150.43899 | 16537 ft | 371 kts | 61° |
| 2026-05-06 09:47 | -34.26461 | 150.46635 | 16019 ft | 371 kts | 61° |
| 2026-05-06 09:47 | -34.25210 | 150.49430 | 14832 ft | 389 kts | 61° |
| 2026-05-06 09:47 | -34.23936 | 150.52275 | 13903 ft | 381 kts | 61° |
| 2026-05-06 09:48 | -34.22706 | 150.55023 | 13332 ft | 365 kts | 61° |
| 2026-05-06 09:48 | -34.21525 | 150.57662 | 12765 ft | 351 kts | 62° |
| 2026-05-06 09:48 | -34.20466 | 150.60023 | 12297 ft | 339 kts | 62° |
| 2026-05-06 09:48 | -34.19350 | 150.62510 | 11881 ft | 337 kts | 62° |
| 2026-05-06 09:49 | -34.18210 | 150.65056 | 11351 ft | 352 kts | 60° |
| 2026-05-06 09:49 | -34.17055 | 150.67636 | 10768 ft | 343 kts | 60° |
| 2026-05-06 09:49 | -34.15946 | 150.70110 | 10424 ft | 327 kts | 60° |
| 2026-05-06 09:49 | -34.14965 | 150.72289 | 10364 ft | 313 kts | 60° |
| 2026-05-06 09:50 | -34.13941 | 150.74560 | 10292 ft | 300 kts | 60° |
| 2026-05-06 09:50 | -34.12957 | 150.76740 | 10088 ft | 293 kts | 59° |
| 2026-05-06 09:50 | -34.11998 | 150.78865 | 9679 ft | 295 kts | 59° |
| 2026-05-06 09:50 | -34.11008 | 150.81058 | 9283 ft | 295 kts | 59° |
| 2026-05-06 09:51 | -34.10026 | 150.83235 | 8958 ft | 292 kts | 59° |
| 2026-05-06 09:51 | -34.09164 | 150.85149 | 8924 ft | 282 kts | 59° |
| 2026-05-06 09:51 | -34.08214 | 150.87257 | 8934 ft | 284 kts | 59° |
| 2026-05-06 09:51 | -34.07044 | 150.89164 | 8916 ft | 281 kts | 37° |
| 2026-05-06 09:52 | -34.05379 | 150.90373 | 8946 ft | 277 kts | 22° |
| 2026-05-06 09:52 | -34.03839 | 150.91257 | 8831 ft | 281 kts | 23° |
| 2026-05-06 09:52 | -34.02081 | 150.92341 | 8557 ft | 278 kts | 25° |
| 2026-05-06 09:52 | -34.00377 | 150.93455 | 8303 ft | 273 kts | 26° |
| 2026-05-06 09:53 | -33.98743 | 150.94550 | 8057 ft | 271 kts | 26° |
| 2026-05-06 09:53 | -33.97104 | 150.95658 | 7808 ft | 270 kts | 26° |
| 2026-05-06 09:53 | -33.95455 | 150.96776 | 7556 ft | 266 kts | 26° |
| 2026-05-06 09:53 | -33.93837 | 150.97876 | 7315 ft | 262 kts | 26° |
| 2026-05-06 09:54 | -33.92251 | 150.98954 | 7082 ft | 257 kts | 26° |
| 2026-05-06 09:54 | -33.90681 | 151.00020 | 6854 ft | 253 kts | 26° |
| 2026-05-06 09:54 | -33.89216 | 151.01015 | 6641 ft | 249 kts | 26° |
| 2026-05-06 09:54 | -33.87794 | 151.01979 | 6352 ft | 249 kts | 27° |
| 2026-05-06 09:55 | -33.86255 | 151.03023 | 6043 ft | 248 kts | 27° |
| 2026-05-06 09:55 | -33.84705 | 151.04073 | 5730 ft | 248 kts | 27° |
| 2026-05-06 09:55 | -33.83196 | 151.05097 | 5414 ft | 248 kts | 27° |
| 2026-05-06 09:55 | -33.81670 | 151.06130 | 5084 ft | 248 kts | 27° |
| 2026-05-06 09:56 | -33.80368 | 151.07012 | 4817 ft | 247 kts | 27° |
| 2026-05-06 09:56 | -33.78804 | 151.08071 | 4501 ft | 246 kts | 27° |
| 2026-05-06 09:56 | -33.77277 | 151.09106 | 4235 ft | 243 kts | 27° |
| 2026-05-06 09:56 | -33.75774 | 151.10125 | 4173 ft | 231 kts | 27° |
| 2026-05-06 09:57 | -33.74372 | 151.11082 | 4091 ft | 222 kts | 30° |
| 2026-05-06 09:57 | -33.73244 | 151.12326 | 4010 ft | 216 kts | 57° |
| 2026-05-06 09:57 | -33.72827 | 151.14051 | 3938 ft | 217 kts | 89° |
| 2026-05-06 09:57 | -33.73122 | 151.15749 | 3943 ft | 225 kts | 114° |
| 2026-05-06 09:58 | -33.74140 | 151.17213 | 3931 ft | 219 kts | 147° |
| 2026-05-06 09:58 | -33.75564 | 151.17818 | 3616 ft | 217 kts | 176° |
| 2026-05-06 09:58 | -33.77126 | 151.17513 | 3060 ft | 228 kts | 207° |
| 2026-05-06 09:58 | -33.78345 | 151.16269 | 2930 ft | 217 kts | 237° |
| 2026-05-06 09:59 | -33.79308 | 151.14895 | 2931 ft | 219 kts | 216° |
| 2026-05-06 09:59 | -33.80717 | 151.14360 | 2926 ft | 219 kts | 175° |
| 2026-05-06 09:59 | -33.82207 | 151.14972 | 2967 ft | 223 kts | 155° |
| 2026-05-06 09:59 | -33.83767 | 151.15499 | 2868 ft | 225 kts | 174° |
| 2026-05-06 10:00 | -33.85305 | 151.15489 | 2863 ft | 198 kts | 176° |
| 2026-05-06 10:00 | -33.86566 | 151.15701 | 2414 ft | 200 kts | 172° |
| 2026-05-06 10:00 | -33.87940 | 151.15918 | 1932 ft | 198 kts | 171° |
| 2026-05-06 10:00 | -33.89313 | 151.16205 | 1513 ft | 190 kts | 166° |
| 2026-05-06 10:01 | -33.90643 | 151.16590 | 897 ft | 190 kts | 167° |
| 2026-05-06 10:01 | -33.91985 | 151.16912 | 316 ft | 187 kts | 168° |
| 2026-05-06 10:01 | -33.93213 | 151.17220 | 39 ft | 172 kts | 167° |
| 2026-05-06 10:01 | -33.94194 | 151.17486 | 17 ft | 99 kts | 168° |
| 2026-05-06 10:02 | -33.94554 | 151.17607 | 25 ft | 11 kts | 118° |
| 2026-05-06 10:02 | -33.94556 | 151.17614 | 25 ft | 0 kts | 107° |
| 2026-05-06 10:02 | -33.94556 | 151.17616 | 25 ft | 0 kts | 87° |
| 2026-05-06 10:02 | -33.94539 | 151.17654 | 25 ft | 0 kts | 66° |
| 2026-05-06 10:04 | -33.94539 | 151.17655 | 25 ft | 0 kts | 66° |
| 2026-05-06 10:04 | -33.94518 | 151.17678 | 26 ft | 8 kts | 27° |
| 2026-05-06 10:04 | -33.94433 | 151.17714 | 24 ft | 18 kts | 19° |
| 2026-05-06 10:04 | -33.94289 | 151.17720 | 21 ft | 24 kts | 349° |
| 2026-05-06 10:05 | -33.94086 | 151.17659 | 13 ft | 35 kts | 347° |
| 2026-05-06 10:05 | -33.93863 | 151.17600 | 9 ft | 27 kts | 347° |
| 2026-05-06 10:05 | -33.93695 | 151.17557 | 9 ft | 22 kts | 347° |
| 2026-05-06 10:05 | -33.93559 | 151.17523 | 9 ft | 18 kts | 348° |
| 2026-05-06 10:06 | -33.93486 | 151.17501 | 10 ft | 0 kts | 320° |
| 2026-05-06 10:06 | -33.93484 | 151.17499 | 10 ft | 1 kts | 309° |
| 2026-05-06 10:06 | -33.93478 | 151.17462 | 11 ft | 7 kts | 269° |
| 2026-05-06 10:06 | -33.93482 | 151.17339 | 16 ft | 15 kts | 290° |
| 2026-05-06 10:07 | -33.93442 | 151.17246 | 19 ft | 9 kts | 288° |
| 2026-05-06 10:07 | -33.93438 | 151.17189 | 21 ft | 5 kts | 263° |
| 2026-05-06 10:07 | -33.93445 | 151.17133 | 23 ft | 7 kts | 265° |
| 2026-05-06 10:07 | -33.93418 | 151.17082 | 24 ft | 9 kts | 331° |
| 2026-05-06 10:08 | -33.93351 | 151.17051 | 25 ft | 12 kts | 339° |
| 2026-05-06 10:08 | -33.93276 | 151.16984 | 26 ft | 13 kts | 320° |
| 2026-05-06 10:08 | -33.93203 | 151.16944 | 26 ft | 10 kts | 340° |
| 2026-05-06 10:08 | -33.93155 | 151.16906 | 26 ft | 6 kts | 270° |
| 2026-05-06 10:09 | -33.93166 | 151.16849 | 26 ft | 5 kts | 259° |
| 2026-05-06 10:09 | -33.93173 | 151.16803 | 26 ft | 4 kts | 258° |
| 2026-05-06 10:09 | -33.93176 | 151.16790 | 26 ft | 0 kts | 258° |